createdAt,value
2019-05-02T00:01:23.705Z,25.27
2019-05-02T00:03:51.913Z,25.60
2019-05-02T00:06:20.561Z,25.53
2019-05-02T00:08:48.748Z,27.25
2019-05-02T00:11:17.491Z,25.43
2019-05-02T00:13:45.592Z,25.92
2019-05-02T00:16:15.328Z,25.20
2019-05-02T00:18:43.841Z,25.60
2019-05-02T00:21:12.422Z,23.73
2019-05-02T00:23:40.653Z,24.93
2019-05-02T00:26:09.188Z,25.30
2019-05-02T00:28:37.342Z,26.53
2019-05-02T00:31:07.408Z,25.00
2019-05-02T00:33:35.869Z,26.82
2019-05-02T00:36:04.523Z,25.00
2019-05-02T00:38:33.324Z,25.50
2019-05-02T00:41:03.668Z,27.10
2019-05-02T00:43:34.339Z,29.00
2019-05-02T00:46:01.976Z,26.90
2019-05-02T00:48:36.365Z,26.50
2019-05-02T00:51:04.284Z,28.63
2019-05-02T00:53:32.388Z,27.83
2019-05-02T00:56:00.600Z,27.97
2019-05-02T00:58:31.938Z,28.00
2019-05-02T01:01:18.281Z,28.47
2019-05-02T01:03:51.997Z,28.23
2019-05-02T01:06:17.956Z,27.00
2019-05-02T01:08:46.253Z,28.80
2019-05-02T01:11:14.391Z,28.70
2019-05-02T01:13:42.564Z,29.37
2019-05-02T01:16:15.204Z,27.90
2019-05-02T01:18:41.276Z,27.95
2019-05-02T01:21:10.764Z,28.73
2019-05-02T01:23:38.870Z,29.33
2019-05-02T01:26:08.713Z,29.30
2019-05-02T01:28:49.295Z,28.30
2019-05-02T01:31:20.283Z,28.03
2019-05-02T01:33:50.171Z,26.95
2019-05-02T01:36:31.888Z,28.47
2019-05-02T01:39:02.845Z,29.50
2019-05-02T01:41:31.099Z,28.30
2019-05-02T01:44:00.163Z,28.90
2019-05-02T01:46:29.330Z,28.98
2019-05-02T01:48:57.489Z,29.42
2019-05-02T01:51:25.587Z,29.07
2019-05-02T01:53:53.696Z,28.33
2019-05-02T01:56:21.874Z,28.17
2019-05-02T01:58:52.912Z,30.03
2019-05-02T02:01:21.547Z,30.13
2019-05-02T02:03:49.867Z,29.43
2019-05-02T02:06:18.102Z,32.80
2019-05-02T02:08:46.353Z,28.33
2019-05-02T02:11:14.534Z,30.17
2019-05-02T02:13:42.668Z,31.97
2019-05-02T02:16:10.808Z,30.67
2019-05-02T02:18:58.960Z,31.62
2019-05-02T02:21:30.944Z,29.20
2019-05-02T02:24:06.707Z,28.93
2019-05-02T02:26:34.943Z,29.80
2019-05-02T02:29:07.689Z,30.23
2019-05-02T02:31:39.960Z,29.87
2019-05-02T02:34:02.925Z,31.40
2019-05-02T02:36:34.191Z,30.33
2019-05-02T02:39:07.070Z,30.48
2019-05-02T02:41:30.831Z,31.23
2019-05-02T02:44:06.946Z,32.35
2019-05-02T02:46:40.178Z,31.87
2019-05-02T02:49:13.935Z,32.45
2019-05-02T02:51:38.268Z,34.10
2019-05-02T02:54:06.446Z,33.83
2019-05-02T02:56:40.578Z,33.10
2019-05-02T02:59:04.541Z,34.70
2019-05-02T03:01:32.665Z,36.63
2019-05-02T03:04:02.035Z,33.10
2019-05-02T03:06:30.680Z,35.70
2019-05-02T03:08:58.885Z,35.93
2019-05-02T03:11:28.636Z,34.57
2019-05-02T03:14:07.591Z,34.17
2019-05-02T03:16:46.030Z,35.27
2019-05-02T03:19:06.781Z,35.03
2019-05-02T03:21:35.156Z,37.47
2019-05-02T03:24:05.874Z,38.17
2019-05-02T03:26:33.675Z,36.63
2019-05-02T03:29:02.075Z,37.90
2019-05-02T03:31:31.448Z,38.20
2019-05-02T03:34:01.187Z,37.20
2019-05-02T03:36:36.034Z,39.50
2019-05-02T03:39:00.084Z,36.50
2019-05-02T03:41:28.306Z,42.37
2019-05-02T03:44:10.590Z,43.17
2019-05-02T03:46:26.409Z,50.03
2019-05-02T03:49:06.019Z,52.20
2019-05-02T03:51:25.245Z,45.63
2019-05-02T03:54:06.327Z,45.00
2019-05-02T03:56:23.620Z,47.30
2019-05-02T03:58:55.904Z,48.93
2019-05-02T04:01:23.050Z,49.53
2019-05-02T04:03:51.511Z,49.67
2019-05-02T04:06:21.193Z,47.40
2019-05-02T04:08:58.862Z,47.00
2019-05-02T04:11:21.237Z,41.67
2019-05-02T04:13:49.680Z,41.43
2019-05-02T04:16:17.900Z,40.12
2019-05-02T04:18:54.399Z,41.53
2019-05-02T04:21:24.135Z,39.03
2019-05-02T04:23:48.004Z,40.17
2019-05-02T04:26:16.283Z,40.80
2019-05-02T04:28:45.477Z,42.23
2019-05-02T04:31:14.313Z,40.90
2019-05-02T04:33:42.492Z,43.50
2019-05-02T04:36:15.280Z,45.20
2019-05-02T04:38:47.422Z,42.40
2019-05-02T04:41:10.448Z,45.27
2019-05-02T04:43:40.548Z,44.53
2019-05-02T04:46:17.529Z,42.87
2019-05-02T04:48:43.812Z,45.40
2019-05-02T04:51:14.207Z,42.10
2019-05-02T04:53:42.133Z,42.43
2019-05-02T04:56:10.649Z,42.40
2019-05-02T04:58:40.608Z,47.90
2019-05-02T05:01:10.122Z,45.63
2019-05-02T05:03:38.057Z,44.37
2019-05-02T05:06:07.970Z,44.93
2019-05-02T05:08:41.238Z,43.13
2019-05-02T05:11:07.654Z,42.37
2019-05-02T05:13:37.395Z,43.77
2019-05-02T05:16:08.612Z,41.98
2019-05-02T05:18:37.768Z,43.20
2019-05-02T05:21:10.242Z,42.03
2019-05-02T05:23:59.601Z,44.53
2019-05-02T05:26:27.662Z,44.57
2019-05-02T05:28:57.942Z,43.30
2019-05-02T05:31:28.875Z,43.68
2019-05-02T05:33:57.787Z,41.57
2019-05-02T05:36:32.597Z,43.90
2019-05-02T05:38:55.264Z,43.63
2019-05-02T05:41:24.127Z,40.90
2019-05-02T05:43:53.709Z,40.67
2019-05-02T05:46:21.916Z,41.63
2019-05-02T05:48:52.819Z,40.55
2019-05-02T05:51:21.128Z,39.97
2019-05-02T05:53:52.342Z,43.28
2019-05-02T05:56:19.109Z,40.70
2019-05-02T05:58:52.296Z,41.18
2019-05-02T06:01:20.061Z,43.53
2019-05-02T06:03:48.700Z,38.73
2019-05-02T06:06:22.770Z,41.10
2019-05-02T06:08:49.321Z,38.07
2019-05-02T06:11:20.143Z,36.67
2019-05-02T06:13:48.681Z,37.67
2019-05-02T06:16:17.114Z,36.10
2019-05-02T06:18:45.500Z,39.50
2019-05-02T06:21:13.697Z,47.27
2019-05-02T06:23:42.022Z,36.70
2019-05-02T06:26:13.435Z,35.13
2019-05-02T06:28:44.641Z,35.83
2019-05-02T06:31:14.471Z,33.57
2019-05-02T06:34:20.462Z,35.40
2019-05-02T06:36:36.804Z,31.87
2019-05-02T06:39:04.118Z,28.50
2019-05-02T06:41:32.344Z,34.67
2019-05-02T06:44:00.447Z,36.60
2019-05-02T06:46:29.748Z,37.23
2019-05-02T06:48:58.158Z,33.28
2019-05-02T06:51:26.705Z,33.50
2019-05-02T06:53:55.121Z,32.67
2019-05-02T06:56:23.267Z,30.23
2019-05-02T06:58:51.474Z,35.10
2019-05-02T07:01:21.308Z,30.87
2019-05-02T07:03:49.502Z,33.48
2019-05-02T07:06:17.949Z,29.60
2019-05-02T07:08:46.526Z,30.90
2019-05-02T07:11:14.706Z,28.30
2019-05-02T07:13:43.829Z,34.63
2019-05-02T07:16:38.616Z,29.80
2019-05-02T07:19:06.154Z,33.73
2019-05-02T07:21:34.359Z,30.07
2019-05-02T07:24:02.649Z,33.15
2019-05-02T07:26:30.801Z,34.20
2019-05-02T07:28:59.608Z,31.55
2019-05-02T07:31:27.714Z,30.23
2019-05-02T07:33:55.886Z,31.73
2019-05-02T07:36:24.064Z,31.60
2019-05-02T07:38:52.205Z,30.90
2019-05-02T07:41:24.180Z,32.28
2019-05-02T07:43:52.173Z,31.73
2019-05-02T07:46:21.006Z,33.80
2019-05-02T07:48:54.650Z,32.77
2019-05-02T07:51:21.241Z,34.90
2019-05-02T07:53:50.368Z,36.30
2019-05-02T07:56:19.045Z,36.10
2019-05-02T07:58:48.159Z,35.23
2019-05-02T08:01:16.292Z,37.77
2019-05-02T08:03:44.395Z,36.60
2019-05-02T08:06:12.521Z,37.80
2019-05-02T08:08:40.669Z,36.10
2019-05-02T08:11:08.885Z,36.57
2019-05-02T08:13:37.643Z,35.88
2019-05-02T08:16:08.915Z,34.60
2019-05-02T08:18:37.104Z,35.77
2019-05-02T08:21:05.284Z,36.47
2019-05-02T08:23:33.381Z,40.70
2019-05-02T08:26:01.570Z,38.73
2019-05-02T08:28:47.043Z,38.67
2019-05-02T08:31:13.680Z,36.47
2019-05-02T08:33:42.900Z,40.13
2019-05-02T08:36:11.086Z,39.93
2019-05-02T08:38:39.243Z,38.33
2019-05-02T08:41:07.466Z,40.20
2019-05-02T08:43:35.644Z,42.23
2019-05-02T08:46:04.038Z,40.63
2019-05-02T08:48:36.377Z,38.80
2019-05-02T08:51:02.091Z,39.00
2019-05-02T08:53:30.315Z,39.13
2019-05-02T08:55:58.489Z,38.07
2019-05-02T08:58:26.650Z,37.40
2019-05-02T09:00:54.780Z,39.20
2019-05-02T09:03:22.910Z,40.77
2019-05-02T09:05:51.085Z,39.60
2019-05-02T09:08:19.338Z,34.27
2019-05-02T09:10:47.519Z,36.53
2019-05-02T09:13:23.663Z,41.33
2019-05-02T09:15:51.098Z,41.23
2019-05-02T09:18:15.344Z,40.23
2019-05-02T09:20:46.936Z,41.65
2019-05-02T09:23:13.405Z,37.83
2019-05-02T09:25:42.995Z,38.70
2019-05-02T09:28:12.472Z,35.33
2019-05-02T09:30:41.938Z,39.07
2019-05-02T09:33:11.758Z,41.07
2019-05-02T09:35:42.026Z,39.20
2019-05-02T09:38:10.184Z,39.57
2019-05-02T09:40:40.003Z,39.60
2019-05-02T09:43:08.105Z,42.25
2019-05-02T09:45:41.015Z,36.80
2019-05-02T09:48:08.338Z,35.92
2019-05-02T09:50:38.190Z,37.33
2019-05-02T09:53:07.296Z,35.83
2019-05-02T09:55:35.516Z,38.23
2019-05-02T09:58:03.625Z,37.17
2019-05-02T10:00:39.053Z,36.23
2019-05-02T10:03:07.604Z,35.00
2019-05-02T10:05:35.820Z,39.67
2019-05-02T10:08:06.860Z,37.77
2019-05-02T10:10:40.259Z,35.30
2019-05-02T10:13:06.004Z,37.50
2019-05-02T10:15:34.963Z,37.95
2019-05-02T10:18:10.543Z,40.83
2019-05-02T10:20:36.240Z,36.70
2019-05-02T10:23:03.517Z,39.03
2019-05-02T10:25:38.621Z,36.47
2019-05-02T10:28:02.154Z,38.17
2019-05-02T10:30:35.494Z,37.17
2019-05-02T10:33:02.607Z,38.20
2019-05-02T10:35:37.305Z,33.43
2019-05-02T10:38:02.591Z,36.42
2019-05-02T10:40:32.136Z,37.37
2019-05-02T10:43:00.481Z,38.17
2019-05-02T10:45:28.634Z,38.67
2019-05-02T10:47:57.566Z,38.33
2019-05-02T10:50:30.285Z,37.43
2019-05-02T10:53:03.516Z,35.67
2019-05-02T10:55:29.012Z,37.97
2019-05-02T10:57:57.108Z,38.30
2019-05-02T11:00:27.033Z,32.93
2019-05-02T11:03:13.453Z,34.83
2019-05-02T11:05:44.714Z,34.93
2019-05-02T11:08:13.624Z,36.50
2019-05-02T11:10:42.335Z,38.03
2019-05-02T11:13:14.642Z,39.73
2019-05-02T11:16:04.453Z,33.50
2019-05-02T11:18:42.380Z,30.80
2019-05-02T11:21:08.210Z,28.43
2019-05-02T11:23:34.005Z,31.20
2019-05-02T11:26:02.275Z,30.67
2019-05-02T11:28:32.281Z,34.50
2019-05-02T11:31:02.679Z,34.85
2019-05-02T11:33:32.382Z,32.03
2019-05-02T11:36:02.389Z,29.63
2019-05-02T11:38:39.281Z,30.47
2019-05-02T11:40:59.920Z,30.68
2019-05-02T11:43:28.060Z,28.30
2019-05-02T11:46:02.515Z,31.10
2019-05-02T11:48:26.216Z,28.37
2019-05-02T11:50:54.328Z,30.35
2019-05-02T11:53:28.308Z,29.40
2019-05-02T11:55:53.265Z,28.53
2019-05-02T11:58:22.991Z,30.00
2019-05-02T12:00:52.337Z,31.10
2019-05-02T12:03:35.478Z,32.47
2019-05-02T12:06:01.995Z,28.27
2019-05-02T12:08:31.899Z,26.27
2019-05-02T12:11:01.945Z,26.50
2019-05-02T12:13:32.222Z,28.12
2019-05-02T12:16:00.005Z,25.93
2019-05-02T12:18:28.211Z,24.98
2019-05-02T12:20:56.402Z,26.53
2019-05-02T12:23:24.716Z,26.63
2019-05-02T12:25:52.933Z,25.87
2019-05-02T12:28:22.924Z,24.77
2019-05-02T12:30:51.905Z,26.37
2019-05-02T12:33:22.341Z,26.97
2019-05-02T12:35:52.547Z,25.40
2019-05-02T12:38:22.909Z,26.20
2019-05-02T12:40:52.012Z,27.17
2019-05-02T12:43:22.749Z,24.70
2019-05-02T12:45:52.805Z,25.17
2019-05-02T12:48:21.979Z,27.50
2019-05-02T12:50:50.019Z,23.30
2019-05-02T12:53:18.127Z,26.10
2019-05-02T12:55:46.263Z,24.77
2019-05-02T12:58:14.429Z,22.97
2019-05-02T13:00:43.221Z,26.33
2019-05-02T13:03:29.226Z,21.13
2019-05-02T13:05:57.471Z,24.90
2019-05-02T13:08:25.587Z,21.83
2019-05-02T13:11:13.913Z,23.90
2019-05-02T13:13:41.830Z,23.43
2019-05-02T13:16:12.050Z,25.57
2019-05-02T13:18:39.628Z,26.27
2019-05-02T13:21:15.145Z,28.77
2019-05-02T13:23:44.435Z,30.57
2019-05-02T13:26:19.853Z,26.70
2019-05-02T13:28:44.217Z,26.23
2019-05-02T13:31:34.976Z,26.82
2019-05-02T13:34:17.035Z,24.00
2019-05-02T13:36:48.010Z,27.47
2019-05-02T13:39:18.800Z,27.00
2019-05-02T13:41:47.020Z,30.43
2019-05-02T13:44:16.928Z,28.23
2019-05-02T13:46:45.212Z,31.43
2019-05-02T13:49:13.447Z,35.03
2019-05-02T13:51:42.612Z,36.33
2019-05-02T13:54:12.534Z,43.23
2019-05-02T13:56:52.608Z,42.53
2019-05-02T13:59:22.243Z,44.13
2019-05-02T14:01:52.495Z,46.10
2019-05-02T14:04:22.965Z,44.40
2019-05-02T14:06:52.688Z,52.23
2019-05-02T14:09:25.049Z,53.17
2019-05-02T14:12:02.006Z,50.13
2019-05-02T14:14:32.613Z,52.37
2019-05-02T14:17:07.367Z,56.27
2019-05-02T14:19:35.869Z,55.38
2019-05-02T14:22:05.388Z,61.03
2019-05-02T14:24:33.700Z,52.90
2019-05-02T14:27:02.615Z,57.70
2019-05-02T14:29:32.849Z,60.43
2019-05-02T14:32:02.676Z,56.60
2019-05-02T14:34:45.019Z,56.63
2019-05-02T14:37:13.492Z,58.00
2019-05-02T14:39:48.745Z,57.53
2019-05-02T14:42:23.577Z,57.37
2019-05-02T14:45:11.877Z,56.20
2019-05-02T14:47:25.193Z,53.10
2019-05-02T14:49:56.647Z,53.87
2019-05-02T14:52:23.327Z,50.80
2019-05-02T14:54:52.534Z,52.20
2019-05-02T14:57:25.707Z,52.40
2019-05-02T14:59:59.088Z,53.10
2019-05-02T15:02:23.328Z,49.13
2019-05-02T15:04:52.482Z,49.95
2019-05-02T15:07:22.869Z,52.57
2019-05-02T15:09:52.392Z,52.73
2019-05-02T15:12:22.207Z,50.40
2019-05-02T15:14:57.050Z,47.80
2019-05-02T15:17:20.331Z,47.50
2019-05-02T15:19:48.436Z,43.83
2019-05-02T15:22:16.587Z,46.18
2019-05-02T15:24:44.700Z,41.20
2019-05-02T15:27:17.744Z,44.07
2019-05-02T15:29:43.604Z,42.53
2019-05-02T15:32:28.513Z,44.93
2019-05-02T15:34:58.267Z,41.90
2019-05-02T15:37:28.601Z,44.88
2019-05-02T15:42:26.724Z,46.10
2019-05-02T15:44:57.155Z,48.33
2019-05-02T15:47:25.214Z,29.23
2019-05-02T15:49:53.361Z,27.63
2019-05-02T15:52:27.755Z,29.30
2019-05-02T15:54:59.764Z,30.37
2019-05-02T15:57:26.104Z,35.50
2019-05-02T15:59:54.564Z,37.08
2019-05-02T16:02:27.196Z,39.93
2019-05-02T16:04:57.056Z,43.03
2019-05-02T16:07:26.462Z,39.40
2019-05-02T16:09:59.375Z,37.90
2019-05-02T16:12:27.118Z,37.90
2019-05-02T16:14:55.217Z,37.33
2019-05-02T16:17:25.740Z,38.93
2019-05-02T16:19:58.691Z,37.90
2019-05-02T16:22:25.632Z,40.57
2019-05-02T16:24:56.526Z,38.53
2019-05-02T16:27:44.122Z,42.80
2019-05-02T16:30:13.370Z,43.37
2019-05-02T16:32:44.284Z,41.60
2019-05-02T16:35:17.314Z,42.90
2019-05-02T16:37:46.750Z,44.47
2019-05-02T16:40:14.893Z,37.30
2019-05-02T16:42:43.087Z,36.07
2019-05-02T16:45:11.839Z,34.90
2019-05-02T16:47:42.312Z,35.33
2019-05-02T16:50:12.209Z,38.57
2019-05-02T16:52:43.796Z,41.03
2019-05-02T16:55:13.614Z,36.37
2019-05-02T16:57:42.396Z,40.83
2019-05-02T17:00:16.803Z,42.10
2019-05-02T17:02:46.395Z,42.90
2019-05-02T17:05:14.991Z,41.70
2019-05-02T17:08:02.308Z,42.10
2019-05-02T17:10:34.827Z,42.50
2019-05-02T17:13:02.763Z,38.93
2019-05-02T17:15:35.775Z,36.37
2019-05-02T17:18:12.623Z,36.25
2019-05-02T17:20:35.505Z,35.50
2019-05-02T17:23:07.423Z,36.75
2019-05-02T17:25:33.699Z,39.67
2019-05-02T17:28:06.974Z,37.17
2019-05-02T17:30:38.644Z,38.37
2019-05-02T17:33:07.120Z,38.53
2019-05-02T17:35:35.409Z,38.67
2019-05-02T17:38:03.920Z,42.50
2019-05-02T17:40:32.023Z,37.05
2019-05-02T17:43:02.998Z,39.73
2019-05-02T17:45:33.303Z,38.90
2019-05-02T17:48:00.287Z,43.00
2019-05-02T17:50:36.387Z,39.50
2019-05-02T17:53:06.437Z,37.63
2019-05-02T17:55:40.306Z,40.33
2019-05-02T17:58:12.597Z,42.87
2019-05-02T18:00:38.974Z,40.85
2019-05-02T18:03:07.205Z,41.40
2019-05-02T18:05:35.852Z,41.90
2019-05-02T18:08:05.865Z,42.23
2019-05-02T18:10:34.816Z,42.50
2019-05-02T18:13:05.352Z,41.33
2019-05-02T18:15:34.742Z,39.20
2019-05-02T18:18:06.769Z,40.35
2019-05-02T18:20:37.086Z,41.23
2019-05-02T18:23:12.301Z,36.53
2019-05-02T18:25:40.956Z,41.03
2019-05-02T18:28:09.119Z,38.02
2019-05-02T18:30:37.220Z,38.67
2019-05-02T18:33:07.287Z,39.17
2019-05-02T18:35:37.501Z,40.50
2019-05-02T18:38:05.229Z,41.50
2019-05-02T18:40:33.479Z,39.07
2019-05-02T18:43:05.157Z,40.77
2019-05-02T18:45:32.005Z,40.03
2019-05-02T18:48:06.547Z,36.30
2019-05-02T18:50:31.917Z,37.83
2019-05-02T18:53:00.302Z,38.17
2019-05-02T18:55:28.567Z,38.95
2019-05-02T18:57:56.991Z,38.20
2019-05-02T19:00:27.983Z,41.63
2019-05-02T19:02:56.693Z,40.47
2019-05-02T19:05:26.496Z,47.00
2019-05-02T19:07:56.399Z,41.40
2019-05-02T19:10:27.445Z,37.07
2019-05-02T19:13:00.979Z,39.43
2019-05-02T19:15:31.739Z,42.43
2019-05-02T19:18:02.430Z,39.20
2019-05-02T19:20:35.221Z,39.23
2019-05-02T19:25:39.127Z,40.17
2019-05-02T19:28:20.938Z,40.23
2019-05-02T19:30:49.528Z,40.27
2019-05-02T19:33:23.398Z,43.00
2019-05-02T19:35:52.594Z,38.50
2019-05-02T19:38:22.639Z,42.83
2019-05-02T19:40:52.036Z,38.07
2019-05-02T19:43:20.395Z,41.47
2019-05-02T19:45:52.571Z,32.07
2019-05-02T19:48:18.585Z,36.27
2019-05-02T19:50:46.872Z,31.73
2019-05-02T19:55:57.270Z,35.13
2019-05-02T19:58:22.509Z,28.03
2019-05-02T20:11:13.784Z,8.00
2019-05-02T20:13:41.912Z,6.13
2019-05-02T20:16:22.468Z,6.10
2019-05-02T20:18:52.156Z,5.93
2019-05-02T20:21:27.439Z,5.20
2019-05-02T20:23:52.330Z,5.43
2019-05-02T20:26:22.125Z,5.53
2019-05-02T20:28:52.611Z,5.03
2019-05-02T20:31:21.721Z,5.63
2019-05-02T20:33:51.907Z,6.40
2019-05-02T20:36:19.959Z,6.17
2019-05-02T20:38:48.135Z,5.10
2019-05-02T20:41:16.512Z,6.43
2019-05-02T20:43:45.444Z,6.00
2019-05-02T20:46:13.619Z,7.75
2019-05-02T20:48:41.954Z,9.53
2019-05-02T20:51:11.991Z,6.30
2019-05-02T20:53:41.841Z,6.43
2019-05-02T20:56:12.179Z,7.37
2019-05-02T20:58:41.851Z,6.23
2019-05-02T21:01:12.187Z,7.07
2019-05-02T21:03:39.796Z,5.83
2019-05-02T21:06:09.610Z,6.20
2019-05-02T21:08:39.384Z,5.80
2019-05-02T21:11:07.760Z,4.83
2019-05-02T21:13:35.997Z,5.53
2019-05-02T21:16:04.388Z,5.75
2019-05-02T21:18:32.891Z,6.03
2019-05-02T21:21:01.159Z,5.63
2019-05-02T21:23:41.942Z,5.28
2019-05-02T21:26:01.897Z,5.47
2019-05-02T21:28:31.998Z,5.17
2019-05-02T21:31:00.652Z,5.40
2019-05-02T21:33:32.476Z,5.73
2019-05-02T21:36:00.891Z,6.50
2019-05-02T21:38:29.034Z,6.25
2019-05-02T21:40:57.147Z,6.30
2019-05-02T21:43:25.319Z,8.20
2019-05-02T21:45:53.567Z,8.78
2019-05-02T21:48:23.280Z,9.30
2019-05-02T21:51:05.164Z,11.70
2019-05-02T21:53:34.929Z,10.60
2019-05-02T21:56:12.296Z,11.10
2019-05-02T21:58:42.769Z,10.67
2019-05-02T22:01:13.028Z,12.13
2019-05-02T22:03:41.392Z,12.80
2019-05-02T22:06:09.702Z,12.63
2019-05-02T22:08:37.816Z,16.63
2019-05-02T22:11:06.853Z,13.20
2019-05-02T22:13:36.658Z,13.23
2019-05-02T22:16:05.656Z,13.67
2019-05-02T22:18:33.762Z,12.80
2019-05-02T22:21:01.956Z,12.57
2019-05-02T22:23:33.587Z,12.07
2019-05-02T22:26:01.988Z,13.13
2019-05-02T22:28:29.771Z,10.85
2019-05-02T22:30:57.890Z,12.93
2019-05-02T22:33:26.768Z,11.68
2019-05-02T22:35:54.869Z,12.20
2019-05-02T22:38:24.646Z,12.33
2019-05-02T22:40:54.552Z,12.03
2019-05-02T22:43:22.708Z,11.57
2019-05-02T22:45:50.906Z,11.40
2019-05-02T22:48:19.111Z,10.33
2019-05-02T22:50:47.254Z,12.50
2019-05-02T22:53:15.407Z,13.50
2019-05-02T22:55:45.211Z,14.65
2019-05-02T22:58:13.320Z,14.13
2019-05-02T23:00:41.698Z,15.07
2019-05-02T23:03:09.963Z,15.50
2019-05-02T23:05:38.245Z,15.87
2019-05-02T23:08:06.360Z,13.20
2019-05-02T23:10:34.540Z,16.60
2019-05-02T23:13:02.818Z,17.07
2019-05-02T23:15:32.089Z,17.50
2019-05-02T23:18:01.686Z,15.98
2019-05-02T23:20:29.998Z,15.47
2019-05-02T23:22:58.154Z,15.08
2019-05-02T23:25:44.631Z,14.53
2019-05-02T23:28:14.944Z,14.33
2019-05-02T23:30:43.124Z,16.93
2019-05-02T23:33:12.980Z,13.90
2019-05-02T23:35:43.046Z,13.37
2019-05-02T23:38:12.592Z,14.97
2019-05-02T23:40:42.071Z,13.78
2019-05-02T23:43:10.253Z,13.03
2019-05-02T23:45:38.471Z,11.25
2019-05-02T23:48:06.652Z,11.47
2019-05-02T23:50:35.279Z,9.93
2019-05-02T23:53:03.452Z,11.77
2019-05-02T23:55:32.229Z,11.10
2019-05-02T23:58:00.381Z,9.83
